Terminal Aerodrome Forecast
Issued by NWS Corpus Christi, TX

Home | Current Version | Previous Version | Text Only | Print | Product List | Glossary On
Versions: 1 2 3 4 5 6 7 8 9 10 11 12
379
FTUS44 KCRP 191121
TAFVCT
TAF
KVCT 191121Z 1912/2012 19005KT P6SM FEW018
      TEMPO 1912/1914 00000KT 6SM BR BKN018
     FM191500 20007KT P6SM SCT035
     FM192000 15011KT P6SM FEW060
     FM200600 VRB03KT P6SM FEW020=

USA.gov is the U.S. government's official web portal to all federal, state and local government web resources and services.